Time;durP1;ratioP1;P1;durP2;ratioP2;P2;SDS_P1;SDS_P2;PMS_P1;PMS_P2;Temp;Humidity;BMP_temperature;BMP_pressure;BME280_temperature;BME280_humidity;BME280_pressure;Samples;Min_cycle;Max_cycle;Signal;HPM_P1;HPM_P2
2024/01/20 00:00:11;;;;;;;3.33;3.03;;;-0.50;88.60;;;;;;5056809;28;20287;-78
2024/01/20 00:02:37;;;;;;;2.60;2.40;;;-0.50;88.30;;;;;;5055239;28;20254;-78
2024/01/20 00:05:03;;;;;;;2.73;2.53;;;-0.50;88.10;;;;;;5056208;28;20178;-80
2024/01/20 00:07:29;;;;;;;3.33;3.03;;;-0.50;87.40;;;;;;5056451;28;20180;-78
2024/01/20 00:09:54;;;;;;;3.67;2.77;;;-0.50;87.90;;;;;;5056346;28;20184;-80
2024/01/20 00:12:20;;;;;;;2.30;2.20;;;-0.40;87.90;;;;;;5056341;28;20181;-80
2024/01/20 00:14:46;;;;;;;2.40;2.30;;;-0.40;86.80;;;;;;5056643;28;20181;-81
2024/01/20 00:17:12;;;;;;;2.50;2.40;;;-0.40;87.30;;;;;;5063651;28;20586;-79
2024/01/20 00:19:37;;;;;;;2.73;2.53;;;-0.50;86.60;;;;;;5058154;28;20180;-79
2024/01/20 00:22:03;;;;;;;2.63;2.43;;;-0.40;87.10;;;;;;5056281;28;20269;-80
2024/01/20 00:24:29;;;;;;;2.50;2.40;;;-0.50;87.00;;;;;;5055274;28;20187;-79
2024/01/20 00:26:55;;;;;;;2.90;2.70;;;-0.40;86.80;;;;;;5054967;28;20176;-79
2024/01/20 00:29:21;;;;;;;3.00;2.80;;;-0.40;86.80;;;;;;5057759;28;20202;-78
2024/01/20 00:31:47;;;;;;;2.40;2.30;;;-0.40;86.60;;;;;;5060991;28;20170;-82
2024/01/20 00:34:13;;;;;;;2.70;2.50;;;-0.40;87.00;;;;;;5055092;28;20187;-80
2024/01/20 00:36:39;;;;;;;2.90;2.13;;;-0.50;87.20;;;;;;5055133;28;20181;-79
2024/01/20 00:39:05;;;;;;;2.67;2.47;;;-0.50;87.20;;;;;;5055157;28;20188;-79
2024/01/20 00:41:31;;;;;;;2.60;2.40;;;-0.50;87.20;;;;;;5055670;28;20178;-79
2024/01/20 00:43:58;;;;;;;2.90;2.70;;;-0.50;86.90;;;;;;5057595;28;20182;-79
2024/01/20 00:46:25;;;;;;;2.67;2.47;;;-0.50;86.40;;;;;;5056831;28;20613;-80
2024/01/20 00:48:51;;;;;;;3.47;2.57;;;-0.50;86.30;;;;;;5055250;28;20288;-80
2024/01/20 00:51:17;;;;;;;2.60;2.40;;;-0.60;86.40;;;;;;5055288;28;20950;-80
2024/01/20 00:53:43;;;;;;;3.10;2.47;;;-0.50;87.20;;;;;;5054491;28;20696;-79
2024/01/20 00:56:08;;;;;;;3.13;2.83;;;-0.50;87.00;;;;;;5036631;28;20211;-80
2024/01/20 00:58:35;;;;;;;2.80;2.53;;;-0.60;86.90;;;;;;5055023;28;20217;-80
2024/01/20 01:01:01;;;;;;;4.30;2.70;;;-0.60;87.20;;;;;;5055880;28;20505;-80
2024/01/20 01:03:27;;;;;;;2.83;2.60;;;-0.60;87.40;;;;;;5055807;28;20192;-79
2024/01/20 01:05:53;;;;;;;2.80;2.60;;;-0.70;87.60;;;;;;5056013;28;20187;-81
2024/01/20 01:08:18;;;;;;;3.13;2.87;;;-0.70;87.80;;;;;;5058308;28;20305;-78
2024/01/20 01:10:44;;;;;;;2.83;2.63;;;-0.60;88.40;;;;;;5069692;28;20178;-84
2024/01/20 01:13:10;;;;;;;2.83;2.63;;;-0.70;88.10;;;;;;5072720;28;20181;-80
2024/01/20 01:15:36;;;;;;;2.93;2.73;;;-0.60;88.40;;;;;;5061212;28;20230;-79
2024/01/20 01:18:01;;;;;;;2.90;2.70;;;-0.60;88.10;;;;;;5057603;28;20248;-79
2024/01/20 01:20:27;;;;;;;3.07;2.83;;;-0.60;87.60;;;;;;5054001;28;20238;-79
2024/01/20 01:22:53;;;;;;;2.57;2.47;;;-0.50;88.70;;;;;;5054738;28;20171;-78
2024/01/20 01:25:19;;;;;;;3.00;2.70;;;-0.60;88.00;;;;;;5053960;28;20181;-79
2024/01/20 01:27:45;;;;;;;2.70;2.50;;;-0.60;88.30;;;;;;5053960;28;20201;-81
2024/01/20 01:30:11;;;;;;;3.30;2.50;;;-0.70;88.20;;;;;;5054173;28;20633;-78
2024/01/20 01:32:37;;;;;;;2.37;2.27;;;-0.70;88.30;;;;;;5053824;28;20181;-80
2024/01/20 01:35:03;;;;;;;2.60;2.40;;;-0.70;89.50;;;;;;5067449;28;20220;-79
2024/01/20 01:37:29;;;;;;;4.30;2.40;;;-0.70;89.10;;;;;;5053885;28;20195;-79
2024/01/20 01:39:54;;;;;;;2.97;2.40;;;-0.80;88.50;;;;;;5053766;28;20756;-82
2024/01/20 01:42:20;;;;;;;2.70;2.50;;;-0.70;87.90;;;;;;5053664;28;20254;-79
2024/01/20 01:44:46;;;;;;;2.27;2.13;;;-0.70;88.40;;;;;;5062789;28;20774;-79
2024/01/20 01:47:12;;;;;;;3.57;2.40;;;-0.70;88.80;;;;;;5070026;28;20175;-80
2024/01/20 01:49:37;;;;;;;2.30;2.10;;;-0.80;90.00;;;;;;5053391;28;20209;-80
2024/01/20 01:52:03;;;;;;;2.77;2.57;;;-0.80;90.20;;;;;;5052041;28;20213;-79
2024/01/20 01:54:30;;;;;;;4.07;2.60;;;-0.80;90.00;;;;;;5053385;28;20182;-79
2024/01/20 01:56:59;;;;;;;2.30;2.20;;;-0.90;89.90;;;;;;5053278;28;20677;-78
2024/01/20 01:59:30;;;;;;;2.40;2.30;;;-0.90;88.80;;;;;;5053229;28;20185;-79
2024/01/20 02:01:56;;;;;;;2.40;2.20;;;-0.90;89.10;;;;;;5053048;28;20181;-80
2024/01/20 02:04:22;;;;;;;2.90;2.70;;;-0.90;88.90;;;;;;5053177;28;20632;-79
2024/01/20 02:06:48;;;;;;;2.50;2.30;;;-0.80;89.20;;;;;;5052881;28;20221;-79
2024/01/20 02:09:13;;;;;;;2.37;2.27;;;-0.90;88.40;;;;;;5053670;28;20240;-79
2024/01/20 02:11:41;;;;;;;2.77;2.10;;;-0.80;88.20;;;;;;5053857;28;20258;-80
2024/01/20 02:14:07;;;;;;;2.33;2.17;;;-0.90;88.00;;;;;;5053601;28;20176;-79
2024/01/20 02:16:32;;;;;;;2.40;2.30;;;-0.90;88.50;;;;;;5053176;28;20228;-80
2024/01/20 02:19:05;;;;;;;2.00;1.90;;;-0.90;88.30;;;;;;5055777;28;20210;-80
2024/01/20 02:21:32;;;;;;;2.37;2.13;;;-0.90;88.10;;;;;;5057526;28;20585;-79
2024/01/20 02:23:59;;;;;;;2.20;2.10;;;-0.90;88.40;;;;;;5056548;28;20715;-80
2024/01/20 02:26:28;;;;;;;2.90;2.50;;;-0.90;88.30;;;;;;5055035;28;20266;-80
2024/01/20 02:28:54;;;;;;;3.93;2.40;;;-0.80;88.30;;;;;;5056243;28;20218;-79
2024/01/20 02:31:22;;;;;;;2.10;2.00;;;-0.80;87.80;;;;;;5057461;28;20259;-82
2024/01/20 02:33:48;;;;;;;3.07;2.60;;;-0.90;88.60;;;;;;5060563;28;20635;-80
2024/01/20 02:36:14;;;;;;;4.37;2.00;;;-0.80;87.50;;;;;;5057181;28;20169;-79
2024/01/20 02:38:40;;;;;;;2.20;2.00;;;-0.80;87.30;;;;;;5056046;28;20185;-80
2024/01/20 02:41:06;;;;;;;2.40;2.20;;;-0.80;87.10;;;;;;5056821;28;20173;-79
2024/01/20 02:43:31;;;;;;;2.07;1.97;;;-0.80;87.00;;;;;;5057070;28;20260;-78
2024/01/20 02:45:57;;;;;;;2.53;2.30;;;-0.80;87.10;;;;;;5058158;28;20178;-80
2024/01/20 02:48:24;;;;;;;2.13;2.03;;;-0.70;86.50;;;;;;5057469;28;20303;-79
2024/01/20 02:50:49;;;;;;;2.27;2.17;;;-0.70;86.60;;;;;;5063178;28;20210;-77
2024/01/20 02:53:15;;;;;;;2.20;2.10;;;-0.70;86.30;;;;;;5074295;28;20194;-78
2024/01/20 02:55:42;;;;;;;2.73;1.90;;;-0.70;86.30;;;;;;5056610;28;20181;-79
2024/01/20 02:58:07;;;;;;;2.30;2.10;;;-0.60;85.90;;;;;;5056543;28;20178;-78
2024/01/20 03:00:33;;;;;;;2.13;2.00;;;-0.60;85.80;;;;;;5055933;28;20182;-78
2024/01/20 03:02:59;;;;;;;2.17;2.03;;;-0.60;85.40;;;;;;5056521;28;20189;-79
2024/01/20 03:05:26;;;;;;;1.70;1.60;;;-0.60;85.20;;;;;;5056507;28;20205;-81
2024/01/20 03:07:52;;;;;;;1.60;1.60;;;-0.50;85.00;;;;;;5056466;28;20710;-79
2024/01/20 03:10:18;;;;;;;2.13;2.00;;;-0.60;85.90;;;;;;5055473;28;20216;-78
2024/01/20 03:12:44;;;;;;;2.27;2.07;;;-0.60;85.00;;;;;;5056905;28;20256;-78
2024/01/20 03:15:10;;;;;;;2.03;1.93;;;-0.50;85.00;;;;;;5057399;28;20261;-79
2024/01/20 03:17:36;;;;;;;1.90;1.80;;;-0.50;84.40;;;;;;5056172;28;20163;-78
2024/01/20 03:20:03;;;;;;;1.97;1.87;;;-0.50;84.70;;;;;;5056192;28;20253;-81
2024/01/20 03:22:29;;;;;;;2.07;1.87;;;-0.50;85.20;;;;;;5056359;28;20173;-80
2024/01/20 03:24:54;;;;;;;2.20;2.10;;;-0.50;85.10;;;;;;5056611;28;20241;-77
2024/01/20 03:27:20;;;;;;;2.00;1.90;;;-0.50;85.40;;;;;;5056076;28;20189;-79
2024/01/20 03:29:46;;;;;;;2.47;2.30;;;-0.50;86.00;;;;;;5055959;28;20245;-78
2024/01/20 03:32:12;;;;;;;3.23;2.93;;;-0.50;87.30;;;;;;5058312;28;20174;-78
2024/01/20 03:34:38;;;;;;;4.20;2.57;;;-0.60;90.80;;;;;;5067726;28;20636;-79
2024/01/20 03:37:05;;;;;;;3.80;3.50;;;-0.80;91.40;;;;;;5059697;28;20188;-80
2024/01/20 03:39:30;;;;;;;4.67;2.90;;;-1.10;91.80;;;;;;5055898;28;20181;-80
2024/01/20 03:41:56;;;;;;;3.67;3.37;;;-1.30;92.30;;;;;;5056397;28;20655;-79
2024/01/20 03:44:22;;;;;;;3.40;3.10;;;-1.40;92.80;;;;;;5056144;28;20266;-81
2024/01/20 03:46:47;;;;;;;3.87;3.33;;;-1.50;93.10;;;;;;5057755;28;20191;-81
2024/01/20 03:49:13;;;;;;;3.03;2.77;;;-1.50;93.30;;;;;;5065691;28;20256;-79
2024/01/20 03:51:39;;;;;;;3.27;2.97;;;-1.60;93.40;;;;;;5065099;28;20191;-79
2024/01/20 03:54:05;;;;;;;4.93;3.27;;;-1.60;93.50;;;;;;5060418;28;20269;-79
2024/01/20 03:56:31;;;;;;;4.27;3.27;;;-1.60;93.70;;;;;;5057639;28;20172;-80
2024/01/20 03:58:58;;;;;;;3.57;3.27;;;-1.60;93.80;;;;;;5057839;28;20181;-79
2024/01/20 04:01:24;;;;;;;5.27;3.20;;;-1.70;94.00;;;;;;5056603;28;20627;-79
2024/01/20 04:03:51;;;;;;;3.50;2.83;;;-1.80;94.10;;;;;;5055612;28;20177;-79
2024/01/20 04:06:16;;;;;;;4.20;3.23;;;-1.90;94.40;;;;;;5055230;28;20189;-79
2024/01/20 04:08:42;;;;;;;10.83;3.50;;;-2.00;94.50;;;;;;5056581;28;20716;-79
2024/01/20 04:11:08;;;;;;;4.07;3.20;;;-2.10;94.60;;;;;;5062579;28;20217;-78
2024/01/20 04:13:34;;;;;;;3.00;2.80;;;-2.20;94.80;;;;;;5059388;28;20177;-80
2024/01/20 04:15:59;;;;;;;3.53;3.23;;;-2.20;94.90;;;;;;5056669;28;20257;-78
2024/01/20 04:18:25;;;;;;;4.07;3.47;;;-2.30;94.90;;;;;;5055107;28;20191;-78
2024/01/20 04:20:51;;;;;;;4.70;3.00;;;-2.30;95.20;;;;;;5054976;28;20175;-78
2024/01/20 04:23:17;;;;;;;3.77;3.33;;;-2.40;95.20;;;;;;5056504;28;20180;-80
2024/01/20 04:25:42;;;;;;;2.83;2.63;;;-2.40;95.70;;;;;;5055847;28;20325;-80
2024/01/20 04:28:08;;;;;;;3.17;2.97;;;-2.50;95.60;;;;;;5056572;28;20199;-79
2024/01/20 04:30:34;;;;;;;3.00;2.80;;;-2.50;95.80;;;;;;5057137;28;20177;-79
2024/01/20 04:33:00;;;;;;;3.03;2.83;;;-2.50;95.90;;;;;;5055047;28;20183;-79
2024/01/20 04:35:25;;;;;;;4.60;2.93;;;-2.50;96.20;;;;;;5054700;28;20179;-79
2024/01/20 04:37:51;;;;;;;3.17;2.97;;;-2.50;96.20;;;;;;5055025;28;20173;-80
2024/01/20 04:40:17;;;;;;;5.57;3.23;;;-2.60;96.20;;;;;;5055069;28;20177;-79
2024/01/20 04:42:43;;;;;;;3.30;3.10;;;-2.60;96.20;;;;;;5053385;28;20271;-78
2024/01/20 04:45:11;;;;;;;3.37;3.07;;;-2.60;96.30;;;;;;5055464;28;20180;-79
2024/01/20 04:47:36;;;;;;;3.70;3.27;;;-2.60;96.50;;;;;;5054676;28;20174;-79
2024/01/20 04:50:02;;;;;;;2.93;2.73;;;-2.60;96.30;;;;;;5053932;28;20225;-80
2024/01/20 04:52:28;;;;;;;4.23;3.13;;;-2.70;96.30;;;;;;5054368;28;20180;-80
2024/01/20 04:54:54;;;;;;;5.03;2.77;;;-2.70;96.30;;;;;;5053923;28;20699;-80
2024/01/20 04:57:23;;;;;;;2.87;2.67;;;-2.80;96.40;;;;;;5054216;28;20199;-79
2024/01/20 04:59:48;;;;;;;4.10;2.93;;;-3.00;96.60;;;;;;5053977;28;20195;-80
2024/01/20 05:02:14;;;;;;;3.53;3.07;;;-3.00;97.00;;;;;;5055378;28;20184;-83
2024/01/20 05:04:40;;;;;;;4.17;2.90;;;-3.00;96.80;;;;;;5053392;28;20177;-82
2024/01/20 05:07:09;;;;;;;2.93;2.73;;;-3.10;97.00;;;;;;5060389;28;20640;-79
2024/01/20 05:09:35;;;;;;;2.90;2.70;;;-3.00;97.30;;;;;;5054331;28;20803;-81
2024/01/20 05:12:00;;;;;;;3.57;3.27;;;-3.00;97.10;;;;;;5053989;28;20172;-79
2024/01/20 05:14:26;;;;;;;3.90;2.63;;;-3.00;97.10;;;;;;5053895;28;20538;-79
2024/01/20 05:16:52;;;;;;;3.37;3.07;;;-3.00;97.60;;;;;;5059082;28;20221;-80
2024/01/20 05:19:17;;;;;;;2.90;2.70;;;-3.00;97.50;;;;;;5070579;28;20177;-78
2024/01/20 05:21:44;;;;;;;4.80;2.90;;;-3.10;97.70;;;;;;5065611;28;20172;-79
2024/01/20 05:24:10;;;;;;;3.10;2.90;;;-3.20;97.70;;;;;;5059940;28;20169;-80
2024/01/20 05:26:37;;;;;;;3.27;3.03;;;-3.20;97.90;;;;;;5065316;28;20215;-81
2024/01/20 05:29:03;;;;;;;2.93;2.73;;;-3.20;97.90;;;;;;5062676;28;20208;-79
2024/01/20 05:31:31;;;;;;;3.13;2.93;;;-3.10;98.30;;;;;;5054521;28;20280;-79
2024/01/20 05:33:58;;;;;;;3.27;3.07;;;-3.10;97.90;;;;;;5059416;28;20192;-80
2024/01/20 05:36:24;;;;;;;4.63;2.87;;;-3.30;98.30;;;;;;5063191;28;20178;-80
2024/01/20 05:38:50;;;;;;;6.43;3.30;;;-3.20;98.50;;;;;;5065366;28;20574;-80
2024/01/20 05:41:16;;;;;;;3.57;3.27;;;-3.20;98.30;;;;;;5056527;28;20203;-79
2024/01/20 05:43:42;;;;;;;4.47;3.67;;;-3.20;98.40;;;;;;5053071;28;20200;-80
2024/01/20 05:46:09;;;;;;;3.57;3.10;;;-3.20;98.50;;;;;;5052891;28;20645;-77
2024/01/20 05:48:35;;;;;;;3.00;2.90;;;-3.20;98.50;;;;;;5051509;28;20295;-78
2024/01/20 05:51:02;;;;;;;4.70;3.40;;;-3.20;98.50;;;;;;5088936;28;20177;-78
2024/01/20 05:53:28;;;;;;;3.50;3.20;;;-3.20;98.40;;;;;;5054070;28;20173;-80
2024/01/20 05:55:54;;;;;;;4.47;3.17;;;-3.30;98.40;;;;;;5058334;28;20195;-79
2024/01/20 05:58:20;;;;;;;3.40;3.10;;;-3.30;98.60;;;;;;5052649;28;20179;-79
2024/01/20 06:00:46;;;;;;;3.77;2.80;;;-3.30;98.60;;;;;;5054585;28;20207;-78
2024/01/20 06:03:12;;;;;;;3.47;3.17;;;-3.30;98.50;;;;;;5055380;28;20231;-78
2024/01/20 06:05:38;;;;;;;3.60;3.30;;;-3.30;98.50;;;;;;5059141;28;20196;-78
2024/01/20 06:08:04;;;;;;;5.17;3.17;;;-3.30;98.30;;;;;;5059068;28;20635;-78
2024/01/20 06:10:29;;;;;;;3.33;3.13;;;-3.20;98.20;;;;;;5056756;28;20184;-79
2024/01/20 06:12:55;;;;;;;3.23;2.97;;;-3.20;98.20;;;;;;5058321;28;20176;-78
2024/01/20 06:15:21;;;;;;;3.73;3.43;;;-2.60;98.40;;;;;;5055329;28;20679;-82
2024/01/20 06:17:46;;;;;;;2.70;2.50;;;-3.20;98.00;;;;;;5056108;28;20237;-77
2024/01/20 06:20:14;;;;;;;3.23;3.03;;;-3.30;97.50;;;;;;5053981;28;20263;-77
2024/01/20 06:22:40;;;;;;;2.97;2.77;;;-3.40;97.40;;;;;;5052861;28;20263;-80
2024/01/20 06:25:06;;;;;;;3.10;2.27;;;-3.50;97.30;;;;;;5053238;28;20248;-80
2024/01/20 06:27:32;;;;;;;3.03;2.80;;;-3.60;97.70;;;;;;5057049;28;20875;-79
2024/01/20 06:29:58;;;;;;;3.90;2.97;;;-3.50;97.90;;;;;;5060865;28;20260;-79
2024/01/20 06:32:24;;;;;;;3.27;2.97;;;-3.40;97.90;;;;;;5060205;28;20203;-81
2024/01/20 06:34:49;;;;;;;3.73;3.43;;;-3.50;98.00;;;;;;5066311;28;20179;-80
2024/01/20 06:37:15;;;;;;;3.33;3.03;;;-3.40;98.20;;;;;;5063239;28;20180;-80
2024/01/20 06:39:41;;;;;;;4.90;3.67;;;-3.40;98.50;;;;;;5057751;28;20651;-78
2024/01/20 06:42:08;;;;;;;4.13;3.70;;;-3.40;98.70;;;;;;5058187;28;20174;-80
2024/01/20 06:44:33;;;;;;;4.30;3.90;;;-3.40;98.70;;;;;;5064549;28;20168;-79
2024/01/20 06:46:59;;;;;;;4.10;3.70;;;-3.50;98.90;;;;;;5058786;28;20259;-79
2024/01/20 06:49:25;;;;;;;3.70;3.40;;;-3.40;99.10;;;;;;5056936;28;20204;-77
2024/01/20 06:51:50;;;;;;;3.63;3.33;;;-3.40;99.20;;;;;;5057321;28;20172;-79
2024/01/20 06:54:16;;;;;;;4.37;3.63;;;-3.50;99.30;;;;;;5054430;28;20172;-79
2024/01/20 06:56:42;;;;;;;3.70;3.40;;;-3.50;99.60;;;;;;5054908;28;20168;-78
2024/01/20 06:59:08;;;;;;;3.97;3.57;;;-3.40;99.60;;;;;;5057562;28;20176;-79
2024/01/20 07:01:34;;;;;;;4.80;3.77;;;-3.40;99.70;;;;;;5057509;28;20239;-82
2024/01/20 07:04:00;;;;;;;4.47;3.67;;;-3.40;99.80;;;;;;5058754;28;20198;-83
2024/01/20 07:06:26;;;;;;;4.17;3.57;;;-3.50;99.60;;;;;;5043067;28;20188;-80
2024/01/20 07:08:52;;;;;;;4.87;3.73;;;-3.40;99.90;;;;;;5039611;28;20196;-82
2024/01/20 07:11:18;;;;;;;4.47;3.70;;;-3.40;99.90;;;;;;5040217;28;20688;-79
2024/01/20 07:13:44;;;;;;;3.73;3.40;;;-3.50;99.70;;;;;;5048260;28;20184;-79
2024/01/20 07:16:11;;;;;;;4.70;3.97;;;-3.50;99.90;;;;;;5047989;28;20307;-80
2024/01/20 07:18:37;;;;;;;4.80;3.60;;;-3.50;99.90;;;;;;5036314;28;20176;-79
2024/01/20 07:21:03;;;;;;;4.50;3.53;;;-3.50;99.90;;;;;;5035957;28;20267;-80
2024/01/20 07:23:30;;;;;;;8.17;3.30;;;-3.50;99.90;;;;;;5035501;28;20224;-76
2024/01/20 07:25:56;;;;;;;5.37;3.63;;;-3.50;99.90;;;;;;5036476;28;20243;-77
2024/01/20 07:28:22;;;;;;;3.87;3.43;;;-3.60;99.90;;;;;;5041468;28;20208;-77
2024/01/20 07:30:48;;;;;;;4.70;3.90;;;-3.70;99.90;;;;;;5055983;28;20179;-78
2024/01/20 07:33:13;;;;;;;4.03;3.73;;;-3.70;99.90;;;;;;5057194;28;20699;-76
2024/01/20 07:35:39;;;;;;;3.90;3.50;;;-4.00;99.90;;;;;;5056984;28;20176;-78
2024/01/20 07:38:05;;;;;;;3.87;3.57;;;-3.90;99.90;;;;;;5055383;28;20188;-77
2024/01/20 07:40:31;;;;;;;3.83;3.50;;;-3.90;99.90;;;;;;5057533;28;20172;-79
2024/01/20 07:42:56;;;;;;;3.73;3.43;;;-3.80;99.90;;;;;;5057927;28;20180;-78
2024/01/20 07:45:22;;;;;;;4.03;3.70;;;-3.70;99.90;;;;;;5058442;28;20172;-80
2024/01/20 07:47:48;;;;;;;3.80;3.47;;;-3.80;99.90;;;;;;5057706;28;20183;-79
2024/01/20 07:50:14;;;;;;;5.53;4.07;;;-3.80;99.90;;;;;;5055319;28;20184;-78
2024/01/20 07:52:40;;;;;;;5.73;4.27;;;-3.70;99.90;;;;;;5056106;28;20198;-79
2024/01/20 07:55:06;;;;;;;6.17;4.57;;;-3.60;99.90;;;;;;5041208;28;20199;-79
2024/01/20 07:57:32;;;;;;;8.83;4.90;;;-3.70;99.90;;;;;;5036677;28;20260;-77
2024/01/20 07:59:58;;;;;;;7.57;5.40;;;-3.70;99.90;;;;;;5052907;28;20210;-78
2024/01/20 08:02:24;;;;;;;6.97;5.13;;;-2.40;99.90;;;;;;5056864;28;20555;-77
2024/01/20 08:04:50;;;;;;;7.17;5.23;;;-3.50;99.90;;;;;;5059770;28;20179;-80
2024/01/20 08:07:15;;;;;;;8.13;5.47;;;-3.40;99.90;;;;;;5060757;28;20241;-80
2024/01/20 08:09:42;;;;;;;7.50;4.57;;;-3.30;99.90;;;;;;5057734;28;20221;-78
2024/01/20 08:12:09;;;;;;;4.90;3.87;;;-3.20;99.90;;;;;;5055838;28;20229;-79
2024/01/20 08:14:35;;;;;;;4.97;4.47;;;-3.10;99.90;;;;;;5055356;28;20188;-79
2024/01/20 08:17:01;;;;;;;6.23;4.97;;;-3.10;99.90;;;;;;5054967;28;20227;-78
2024/01/20 08:19:27;;;;;;;11.83;6.20;;;-3.00;99.90;;;;;;5055335;28;20184;-81
2024/01/20 08:21:52;;;;;;;8.57;5.43;;;-2.90;99.90;;;;;;5055350;28;20175;-80
2024/01/20 08:24:18;;;;;;;6.83;4.83;;;-3.10;99.90;;;;;;5054207;28;20591;-79
2024/01/20 08:26:45;;;;;;;6.27;5.17;;;-2.90;99.90;;;;;;5055228;28;20286;-78
2024/01/20 08:29:11;;;;;;;6.67;5.33;;;-3.00;99.90;;;;;;5055223;28;20208;-76
2024/01/20 08:31:38;;;;;;;6.60;4.57;;;-3.00;99.90;;;;;;5053446;28;20181;-76
2024/01/20 08:34:04;;;;;;;8.63;4.37;;;-2.90;99.90;;;;;;5053117;28;20186;-76
2024/01/20 08:36:29;;;;;;;7.83;4.63;;;-2.90;99.90;;;;;;5057035;28;20178;-77
2024/01/20 08:38:55;;;;;;;4.73;4.33;;;-2.70;99.90;;;;;;5057417;28;20718;-78
2024/01/20 08:41:21;;;;;;;5.10;4.57;;;-2.60;99.90;;;;;;5055511;28;20181;-79
2024/01/20 08:43:47;;;;;;;6.47;4.80;;;-2.40;99.90;;;;;;5055838;28;20172;-77
2024/01/20 08:46:13;;;;;;;7.23;4.90;;;-2.30;99.90;;;;;;5057952;28;20179;-78
2024/01/20 08:48:40;;;;;;;9.77;5.30;;;-2.30;99.90;;;;;;5069515;28;20231;-78
2024/01/20 08:51:06;;;;;;;6.80;4.70;;;-2.30;99.90;;;;;;5063087;28;20164;-75
2024/01/20 08:53:34;;;;;;;5.90;5.13;;;-2.20;99.90;;;;;;5055625;28;20176;-76
2024/01/20 08:56:00;;;;;;;5.83;5.20;;;-2.40;99.90;;;;;;5056468;28;20172;-79
2024/01/20 08:58:26;;;;;;;7.17;5.07;;;-2.40;99.90;;;;;;5055377;28;20543;-78
2024/01/20 09:00:52;;;;;;;8.37;5.30;;;-2.30;99.90;;;;;;5053732;28;20176;-78
2024/01/20 09:03:18;;;;;;;6.87;4.87;;;-2.20;99.90;;;;;;5058787;28;20169;-78
2024/01/20 09:05:44;;;;;;;6.50;4.67;;;-2.10;99.90;;;;;;5063451;28;20189;-79
2024/01/20 09:08:10;;;;;;;6.63;4.80;;;-2.00;99.90;;;;;;5053542;28;20209;-78
2024/01/20 09:10:36;;;;;;;15.80;4.90;;;-1.90;99.90;;;;;;5054550;28;20182;-78
2024/01/20 09:13:07;;;;;;;4.57;4.17;;;-1.80;99.90;;;;;;5053904;28;20173;-78
2024/01/20 09:15:33;;;;;;;7.53;4.57;;;-1.90;99.90;;;;;;5054384;28;20208;-79
2024/01/20 09:17:59;;;;;;;4.37;3.90;;;-1.80;99.90;;;;;;5054530;28;20241;-78
2024/01/20 09:20:24;;;;;;;5.60;4.50;;;-1.70;99.90;;;;;;5061425;28;20173;-79
2024/01/20 09:22:50;;;;;;;5.73;4.50;;;-1.60;99.90;;;;;;5063764;28;20204;-77
2024/01/20 09:25:17;;;;;;;6.57;4.23;;;-1.50;99.90;;;;;;5066259;28;20183;-75
2024/01/20 09:27:43;;;;;;;5.43;4.47;;;-1.10;99.90;;;;;;5059618;28;20215;-78
2024/01/20 09:30:09;;;;;;;4.83;4.37;;;-1.10;99.90;;;;;;5058168;28;20192;-78
2024/01/20 09:32:35;;;;;;;5.83;4.67;;;-1.00;99.90;;;;;;5055238;28;20173;-76
2024/01/20 09:35:02;;;;;;;6.20;4.73;;;-1.00;99.90;;;;;;5069560;28;20185;-78
2024/01/20 09:37:29;;;;;;;6.47;4.83;;;-1.00;99.90;;;;;;5061147;28;20169;-78
2024/01/20 09:39:55;;;;;;;8.37;4.93;;;-1.00;99.90;;;;;;5055871;28;20182;-76
2024/01/20 09:42:21;;;;;;;9.87;5.00;;;-1.00;99.90;;;;;;5042005;28;20179;-74
2024/01/20 09:44:48;;;;;;;7.50;4.83;;;-1.00;99.90;;;;;;5046131;28;20194;-78
2024/01/20 09:47:14;;;;;;;8.10;4.83;;;-1.00;99.90;;;;;;5056177;28;20212;-78
2024/01/20 09:49:39;;;;;;;6.33;4.90;;;-0.80;99.90;;;;;;5054366;28;20245;-78
2024/01/20 09:52:17;;;;;;;6.27;4.90;;;-0.70;99.90;;;;;;5054907;28;20174;-78
2024/01/20 09:54:55;;;;;;;6.70;4.80;;;-0.60;99.90;;;;;;5055783;28;20228;-77
2024/01/20 09:57:23;;;;;;;5.50;4.40;;;-0.60;99.90;;;;;;5054570;28;20252;-76
2024/01/20 09:59:51;;;;;;;8.10;4.73;;;-0.50;99.90;;;;;;5054413;28;20206;-76
2024/01/20 10:02:20;;;;;;;6.57;4.73;;;-0.50;99.90;;;;;;5053543;28;20287;-78
2024/01/20 10:04:48;;;;;;;7.37;5.30;;;-0.30;99.70;;;;;;5055430;28;20321;-77
2024/01/20 10:07:30;;;;;;;8.80;5.37;;;-0.30;99.70;;;;;;5044702;28;20611;-78
2024/01/20 10:09:56;;;;;;;8.37;4.70;;;-0.20;99.30;;;;;;5041733;28;20210;-79
2024/01/20 10:12:23;;;;;;;9.20;5.13;;;-0.20;99.30;;;;;;5052920;28;20177;-77
2024/01/20 10:14:49;;;;;;;6.13;5.27;;;-0.20;99.20;;;;;;5052413;28;20782;-79
2024/01/20 10:17:17;;;;;;;7.17;4.73;;;-0.10;99.10;;;;;;5053387;28;20234;-77
2024/01/20 10:19:43;;;;;;;6.83;5.33;;;0.00;99.10;;;;;;5054635;28;20190;-80
2024/01/20 10:22:10;;;;;;;10.60;4.90;;;0.10;99.90;;;;;;5052917;28;20187;-77
2024/01/20 10:24:52;;;;;;;9.73;5.83;;;0.10;99.40;;;;;;5053528;28;20175;-78
2024/01/20 10:27:23;;;;;;;8.70;5.53;;;0.20;99.70;;;;;;5061539;28;20178;-78
2024/01/20 10:29:49;;;;;;;9.17;5.83;;;0.30;99.10;;;;;;5045775;28;20195;-76
2024/01/20 10:32:16;;;;;;;12.10;5.90;;;0.40;99.40;;;;;;5055594;28;20185;-78
2024/01/20 10:34:43;;;;;;;7.87;6.23;;;0.50;99.00;;;;;;5044530;28;20277;-75
2024/01/20 10:37:12;;;;;;;11.97;5.63;;;0.50;97.60;;;;;;5055063;28;20278;-78
2024/01/20 10:39:42;;;;;;;9.50;5.67;;;0.60;97.90;;;;;;5051157;28;20178;-76
2024/01/20 10:42:12;;;;;;;6.47;5.50;;;0.70;98.00;;;;;;5056180;28;20706;-77
2024/01/20 10:44:40;;;;;;;7.80;5.60;;;0.80;97.80;;;;;;5053593;28;20261;-77
2024/01/20 10:47:17;;;;;;;10.07;5.40;;;0.90;97.70;;;;;;5055191;28;20180;-77
2024/01/20 10:49:45;;;;;;;11.57;4.73;;;0.90;96.70;;;;;;5044129;28;20702;-77
2024/01/20 10:52:13;;;;;;;5.13;4.17;;;1.00;96.40;;;;;;5057788;28;20164;-79
2024/01/20 10:54:42;;;;;;;8.57;4.03;;;1.10;95.70;;;;;;5060274;28;20189;-77
2024/01/20 10:57:08;;;;;;;5.37;3.90;;;1.30;94.60;;;;;;5069717;28;20181;-79
2024/01/20 10:59:41;;;;;;;6.30;3.90;;;1.40;93.90;;;;;;5068045;28;20198;-78
2024/01/20 11:02:09;;;;;;;4.30;3.90;;;1.40;94.10;;;;;;5056094;28;20198;-77
2024/01/20 11:04:35;;;;;;;4.97;3.40;;;1.60;93.80;;;;;;5056924;28;20182;-74
2024/01/20 11:07:01;;;;;;;3.93;3.50;;;1.70;93.70;;;;;;5056624;28;20176;-76
2024/01/20 11:09:29;;;;;;;4.47;3.30;;;1.70;93.10;;;;;;5056527;28;20211;-77
2024/01/20 11:12:02;;;;;;;6.93;5.23;;;1.80;92.90;;;;;;5056154;28;20170;-76
2024/01/20 11:14:31;;;;;;;4.73;4.30;;;1.90;92.70;;;;;;5056188;28;20175;-77
2024/01/20 11:17:00;;;;;;;7.53;3.93;;;2.00;92.50;;;;;;5056420;28;20239;-79
2024/01/20 11:19:30;;;;;;;3.47;2.97;;;2.10;92.00;;;;;;5055465;28;20554;-77
2024/01/20 11:21:56;;;;;;;13.50;3.70;;;2.10;91.60;;;;;;5059265;28;20188;-77
2024/01/20 11:24:42;;;;;;;3.80;2.23;;;2.20;90.00;;;;;;5057780;28;20181;-78
2024/01/20 11:27:08;;;;;;;2.10;1.30;;;2.40;82.90;;;;;;5055543;28;20193;-75
2024/01/20 11:29:33;;;;;;;1.80;1.40;;;2.60;75.60;;;;;;5055537;28;20665;-77
2024/01/20 11:31:59;;;;;;;1.17;1.07;;;2.80;74.10;;;;;;5058931;28;20210;-75
2024/01/20 11:34:25;;;;;;;1.00;1.00;;;2.90;74.00;;;;;;5055312;28;20180;-77
2024/01/20 11:36:52;;;;;;;1.27;1.20;;;2.90;73.30;;;;;;5055358;28;20654;-76
2024/01/20 11:39:21;;;;;;;1.50;1.37;;;2.90;72.80;;;;;;5056269;28;20244;-76
2024/01/20 11:42:01;;;;;;;1.20;1.20;;;3.00;71.30;;;;;;5056416;28;20184;-76
2024/01/20 11:44:29;;;;;;;1.40;1.30;;;3.00;70.80;;;;;;5057363;28;20173;-81
2024/01/20 11:46:55;;;;;;;1.20;1.13;;;3.10;70.80;;;;;;5058980;28;20177;-78
2024/01/20 11:49:21;;;;;;;1.00;1.00;;;3.20;67.90;;;;;;5072452;28;20208;-78
2024/01/20 11:51:47;;;;;;;1.17;1.13;;;3.20;68.60;;;;;;5056702;28;20261;-76
2024/01/20 11:54:13;;;;;;;1.10;1.10;;;3.30;69.20;;;;;;5055689;28;20183;-76
2024/01/20 11:56:39;;;;;;;1.00;1.00;;;3.30;69.00;;;;;;5056137;28;20255;-78
2024/01/20 11:59:05;;;;;;;1.20;1.10;;;3.30;67.60;;;;;;5062703;28;20655;-76
2024/01/20 12:01:31;;;;;;;1.07;0.80;;;3.30;67.70;;;;;;5056260;28;20224;-77
2024/01/20 12:03:59;;;;;;;2.80;1.27;;;3.40;65.90;;;;;;5060097;28;20176;-79
2024/01/20 12:06:25;;;;;;;3.43;0.87;;;3.40;65.30;;;;;;5062118;28;20186;-76
2024/01/20 12:08:51;;;;;;;1.03;1.03;;;3.40;66.20;;;;;;5057733;28;20201;-77
2024/01/20 12:11:21;;;;;;;1.30;1.30;;;3.50;65.60;;;;;;5056617;28;20185;-76
2024/01/20 12:13:48;;;;;;;1.07;1.07;;;3.50;67.10;;;;;;5065951;28;20171;-78
2024/01/20 12:16:14;;;;;;;2.30;2.10;;;3.50;66.00;;;;;;5055838;28;20309;-77
2024/01/20 12:18:40;;;;;;;1.27;1.17;;;3.60;65.50;;;;;;5035152;28;20174;-77
2024/01/20 12:21:06;;;;;;;0.80;0.80;;;3.70;63.50;;;;;;5045468;28;20182;-77
2024/01/20 12:23:32;;;;;;;0.73;0.73;;;3.70;64.60;;;;;;5054444;28;20176;-76
2024/01/20 12:25:59;;;;;;;0.73;0.73;;;3.70;63.60;;;;;;5053540;28;20237;-77
2024/01/20 12:28:25;;;;;;;0.80;0.80;;;3.60;64.10;;;;;;5054223;28;20215;-77
2024/01/20 12:30:51;;;;;;;0.90;0.90;;;3.60;64.10;;;;;;5050984;28;20215;-77
2024/01/20 12:33:17;;;;;;;0.70;0.70;;;3.60;64.10;;;;;;5035103;28;20183;-78
2024/01/20 12:35:43;;;;;;;0.77;0.77;;;3.60;63.50;;;;;;5042496;28;20186;-78
2024/01/20 12:38:09;;;;;;;0.97;0.97;;;3.60;62.90;;;;;;5055077;28;20214;-78
2024/01/20 12:40:34;;;;;;;1.17;0.90;;;3.70;62.30;;;;;;5054399;28;20183;-79
2024/01/20 12:43:00;;;;;;;2.27;1.00;;;3.70;62.30;;;;;;5053742;28;20190;-77